createdAt,value
2023-03-18T00:01:17.004Z,100421.36
2023-03-18T00:03:50.361Z,100418.29
2023-03-18T00:06:23.448Z,100425.15
2023-03-18T00:08:53.666Z,100425.89
2023-03-18T00:11:27.397Z,100421.98
2023-03-18T00:13:59.099Z,100421.12
2023-03-18T00:16:31.313Z,100423.25
2023-03-18T00:19:04.139Z,100423.25
2023-03-18T00:21:36.254Z,100417.17
2023-03-18T00:24:08.394Z,100414.78
2023-03-18T00:26:40.353Z,100412.27
2023-03-18T00:29:12.366Z,100416.80
2023-03-18T00:31:44.949Z,100412.85
2023-03-18T00:34:16.051Z,100411.25
2023-03-18T00:36:50.728Z,100405.89
2023-03-18T00:39:26.440Z,100397.64
2023-03-18T00:42:02.131Z,100396.55
2023-03-18T00:44:34.289Z,100396.92
2023-03-18T00:47:06.493Z,100388.30
2023-03-18T00:49:39.441Z,100385.66
2023-03-18T00:52:11.311Z,100387.16
2023-03-18T00:54:43.080Z,100386.80
2023-03-18T00:57:15.607Z,100380.75
2023-03-18T00:59:48.357Z,100386.30
2023-03-18T01:02:20.651Z,100379.31
2023-03-18T01:04:53.320Z,100375.70
2023-03-18T01:07:24.250Z,100371.73
2023-03-18T01:09:56.050Z,100367.05
2023-03-18T01:12:29.271Z,100367.09
2023-03-18T01:15:01.429Z,100367.12
2023-03-18T01:17:33.403Z,100369.63
2023-03-18T01:20:06.242Z,100371.96
2023-03-18T01:22:39.228Z,100372.14
2023-03-18T01:25:13.547Z,100368.42
2023-03-18T01:27:45.951Z,100367.55
2023-03-18T01:30:19.820Z,100368.11
2023-03-18T01:32:51.924Z,100371.19
2023-03-18T01:35:25.687Z,100373.85
2023-03-18T01:37:58.043Z,100371.92
2023-03-18T01:40:30.567Z,100372.64
2023-03-18T01:43:21.887Z,100367.63
2023-03-18T01:45:55.571Z,100369.95
2023-03-18T01:48:29.876Z,100373.03
2023-03-18T01:51:10.324Z,100374.44
2023-03-18T01:53:45.890Z,100373.18
2023-03-18T01:56:19.856Z,100366.76
2023-03-18T01:58:54.969Z,100368.38
2023-03-18T02:01:33.606Z,100366.39
2023-03-18T02:04:10.355Z,100368.38
2023-03-18T02:06:43.659Z,100366.41
2023-03-18T02:09:16.175Z,100360.04
2023-03-18T02:11:50.692Z,100364.85
2023-03-18T02:14:26.726Z,100369.13
2023-03-18T02:17:03.784Z,100368.40
2023-03-18T02:19:51.701Z,100368.39
2023-03-18T02:22:31.030Z,100366.97
2023-03-18T02:25:14.235Z,100362.14
2023-03-18T02:27:50.196Z,100367.87
2023-03-18T02:30:27.278Z,100365.38
2023-03-18T02:33:00.975Z,100366.32
2023-03-18T02:35:34.934Z,100367.73
2023-03-18T02:38:07.452Z,100360.94
2023-03-18T02:40:41.720Z,100362.37
2023-03-18T02:43:26.261Z,100360.19
2023-03-18T02:46:30.782Z,100352.71
2023-03-18T02:49:06.696Z,100345.20
2023-03-18T02:51:39.582Z,100349.52
2023-03-18T02:54:13.347Z,100353.07
2023-03-18T02:56:45.988Z,100350.04
2023-03-18T02:59:19.230Z,100352.90
2023-03-18T03:01:54.246Z,100352.54
2023-03-18T03:04:27.815Z,100356.84
2023-03-18T03:07:01.459Z,100358.82
2023-03-18T03:09:41.889Z,100358.30
2023-03-18T03:12:14.561Z,100358.12
2023-03-18T03:14:49.874Z,100356.49
2023-03-18T03:17:22.709Z,100358.83
2023-03-18T03:19:55.344Z,100355.63
2023-03-18T03:22:27.358Z,100358.69
2023-03-18T03:24:59.590Z,100363.52
2023-03-18T03:27:31.963Z,100364.61
2023-03-18T03:30:03.680Z,100370.89
2023-03-18T03:32:35.412Z,100381.27
2023-03-18T03:35:09.398Z,100383.05
2023-03-18T03:37:42.177Z,100380.53
2023-03-18T03:40:16.988Z,100376.79
2023-03-18T03:42:50.161Z,100371.27
2023-03-18T03:45:22.624Z,100378.60
2023-03-18T03:47:53.782Z,100378.60
2023-03-18T03:50:25.670Z,100376.09
2023-03-18T03:52:58.263Z,100379.52
2023-03-18T03:55:31.802Z,100379.68
2023-03-18T03:58:03.761Z,100379.69
2023-03-18T04:00:34.750Z,100380.58
2023-03-18T04:03:06.758Z,100378.42
2023-03-18T04:05:38.818Z,100376.48
2023-03-18T04:08:11.035Z,100375.41
2023-03-18T04:10:43.824Z,100376.12
2023-03-18T04:13:15.705Z,100377.73
2023-03-18T04:15:48.091Z,100377.38
2023-03-18T04:18:22.817Z,100365.95
2023-03-18T04:20:55.167Z,100372.03
2023-03-18T04:23:40.937Z,100376.51
2023-03-18T04:26:13.057Z,100375.43
2023-03-18T04:28:45.265Z,100373.44
2023-03-18T04:31:19.291Z,100369.70
2023-03-18T04:33:50.964Z,100368.44
2023-03-18T04:36:23.990Z,100370.94
2023-03-18T04:38:56.869Z,100367.73
2023-03-18T04:41:29.366Z,100367.86
2023-03-18T04:44:02.532Z,100364.11
2023-03-18T04:46:42.207Z,100364.11
2023-03-18T04:49:14.094Z,100363.56
2023-03-18T04:51:46.499Z,100369.12
2023-03-18T04:54:27.293Z,100367.52
2023-03-18T04:56:59.513Z,100364.30
2023-03-18T04:59:31.692Z,100364.67
2023-03-18T05:02:06.598Z,100365.40
2023-03-18T05:04:38.980Z,100362.34
2023-03-18T05:07:13.489Z,100359.14
2023-03-18T05:09:45.314Z,100365.23
2023-03-18T05:12:18.264Z,100370.74
2023-03-18T05:14:50.187Z,100375.58
2023-03-18T05:17:22.017Z,100382.55
2023-03-18T05:20:00.245Z,100385.06
2023-03-18T05:22:32.943Z,100378.63
2023-03-18T05:25:12.708Z,100375.39
2023-03-18T05:27:45.901Z,100371.27
2023-03-18T05:30:23.882Z,100362.52
2023-03-18T05:32:58.583Z,100365.53
2023-03-18T05:35:47.224Z,100364.82
2023-03-18T05:38:19.801Z,100370.89
2023-03-18T05:40:51.719Z,100361.95
2023-03-18T05:43:28.363Z,100364.27
2023-03-18T05:46:01.945Z,100368.36
2023-03-18T05:48:43.568Z,100371.96
2023-03-18T05:51:16.208Z,100369.09
2023-03-18T05:53:47.921Z,100367.50
2023-03-18T05:56:25.967Z,100360.48
2023-03-18T05:59:01.549Z,100359.23
2023-03-18T06:01:41.211Z,100363.52
2023-03-18T06:04:13.718Z,100356.89
2023-03-18T06:06:44.610Z,100357.23
2023-03-18T06:09:17.444Z,100357.42
2023-03-18T06:11:50.644Z,100357.93
2023-03-18T06:14:22.554Z,100366.17
2023-03-18T06:16:55.631Z,100373.48
2023-03-18T06:19:28.534Z,100367.91
2023-03-18T06:21:58.998Z,100370.02
2023-03-18T06:24:30.698Z,100366.98
2023-03-18T06:27:04.799Z,100360.37
2023-03-18T06:29:37.834Z,100363.41
2023-03-18T06:32:14.272Z,100366.80
2023-03-18T06:34:46.131Z,100367.66
2023-03-18T06:37:17.931Z,100362.66
2023-03-18T06:39:50.494Z,100369.47
2023-03-18T06:42:22.907Z,100377.52
2023-03-18T06:45:01.484Z,100383.60
2023-03-18T06:47:46.473Z,100382.70
2023-03-18T06:50:18.719Z,100381.23
2023-03-18T06:52:50.553Z,100373.88
2023-03-18T06:55:25.760Z,100373.34
2023-03-18T06:57:58.010Z,100373.31
2023-03-18T07:00:35.986Z,100371.73
2023-03-18T07:03:09.043Z,100376.38
2023-03-18T07:05:42.187Z,100379.93
2023-03-18T07:08:15.634Z,100385.84
2023-03-18T07:10:47.481Z,100388.51
2023-03-18T07:13:19.095Z,100389.17
2023-03-18T07:15:50.945Z,100387.35
2023-03-18T07:18:23.879Z,100394.65
2023-03-18T07:20:55.699Z,100389.25
2023-03-18T07:23:27.932Z,100388.52
2023-03-18T07:26:02.290Z,100384.93
2023-03-18T07:28:34.213Z,100383.63
2023-03-18T07:31:06.260Z,100381.23
2023-03-18T07:33:38.613Z,100387.86
2023-03-18T07:36:11.060Z,100385.84
2023-03-18T07:38:43.058Z,100385.98
2023-03-18T07:41:15.191Z,100385.55
2023-03-18T07:43:48.613Z,100383.55
2023-03-18T07:46:20.957Z,100388.73
2023-03-18T07:48:52.942Z,100388.36
2023-03-18T07:51:25.170Z,100386.08
2023-03-18T07:53:57.401Z,100386.50
2023-03-18T07:56:29.409Z,100395.23
2023-03-18T07:59:01.534Z,100396.23
2023-03-18T08:01:33.688Z,100400.09
2023-03-18T08:04:06.010Z,100400.88
2023-03-18T08:06:39.109Z,100401.29
2023-03-18T08:09:11.008Z,100400.64
2023-03-18T08:11:43.276Z,100397.48
2023-03-18T08:14:15.248Z,100398.98
2023-03-18T08:16:47.834Z,100399.77
2023-03-18T08:19:19.835Z,100401.41
2023-03-18T08:21:51.555Z,100405.98
2023-03-18T08:24:24.494Z,100405.86
2023-03-18T08:26:56.657Z,100404.33
2023-03-18T08:29:28.457Z,100404.44
2023-03-18T08:32:00.257Z,100402.33
2023-03-18T08:34:32.438Z,100397.67
2023-03-18T08:37:05.050Z,100401.13
2023-03-18T08:39:36.896Z,100402.07
2023-03-18T08:42:10.339Z,100401.03
2023-03-18T08:44:43.437Z,100397.02
2023-03-18T08:47:15.673Z,100397.05
2023-03-18T08:49:49.214Z,100394.27
2023-03-18T08:52:22.749Z,100398.45
2023-03-18T08:54:54.500Z,100400.91
2023-03-18T08:57:27.838Z,100403.47
2023-03-18T08:59:59.944Z,100404.55
2023-03-18T09:02:31.926Z,100403.02
2023-03-18T09:05:03.858Z,100406.33
2023-03-18T09:07:36.229Z,100404.04
2023-03-18T09:10:10.217Z,100407.30
2023-03-18T09:12:42.176Z,100404.02
2023-03-18T09:15:15.991Z,100400.61
2023-03-18T09:18:03.701Z,100402.09
2023-03-18T09:20:40.465Z,100405.50
2023-03-18T09:23:14.055Z,100402.11
2023-03-18T09:25:46.975Z,100401.18
2023-03-18T09:28:19.333Z,100400.61
2023-03-18T09:30:51.293Z,100397.17
2023-03-18T09:33:23.245Z,100399.17
2023-03-18T09:35:55.422Z,100401.13
2023-03-18T09:38:27.791Z,100399.24
2023-03-18T09:41:08.009Z,100397.83
2023-03-18T09:43:51.599Z,100398.33
2023-03-18T09:46:32.942Z,100395.87
2023-03-18T09:49:35.206Z,100398.14
2023-03-18T09:52:19.410Z,100402.85
2023-03-18T09:54:58.773Z,100392.99
2023-03-18T09:57:34.595Z,100392.05
2023-03-18T10:00:17.440Z,100393.42
2023-03-18T10:02:54.190Z,100394.05
2023-03-18T10:05:32.761Z,100392.27
2023-03-18T10:08:09.085Z,100392.48
2023-03-18T10:10:46.812Z,100395.91
2023-03-18T10:13:23.582Z,100396.09
2023-03-18T10:15:58.672Z,100392.52
2023-03-18T10:18:34.800Z,100394.91
2023-03-18T10:21:21.877Z,100391.18
2023-03-18T10:24:03.643Z,100389.95
2023-03-18T10:26:43.580Z,100385.88
2023-03-18T10:29:33.366Z,100382.29
2023-03-18T10:32:21.150Z,100383.09
2023-03-18T10:35:03.958Z,100385.88
2023-03-18T10:37:50.104Z,100379.48
2023-03-18T10:40:25.595Z,100379.42
2023-03-18T10:42:58.190Z,100376.50
2023-03-18T10:45:33.077Z,100372.98
2023-03-18T10:48:12.645Z,100370.67
2023-03-18T10:50:50.163Z,100371.81
2023-03-18T10:53:27.094Z,100367.98
2023-03-18T10:56:06.943Z,100359.86
2023-03-18T10:58:40.661Z,100363.61
2023-03-18T11:01:19.092Z,100368.88
2023-03-18T11:03:56.096Z,100367.84
2023-03-18T11:06:36.815Z,100366.58
2023-03-18T11:09:12.510Z,100367.51
2023-03-18T11:11:45.976Z,100361.96
2023-03-18T11:14:20.960Z,100360.27
2023-03-18T11:17:00.335Z,100360.73
2023-03-18T11:19:39.176Z,100366.67
2023-03-18T11:22:22.511Z,100362.86
2023-03-18T11:25:17.095Z,100360.61
2023-03-18T11:27:51.288Z,100358.83
2023-03-18T11:30:35.034Z,100358.89
2023-03-18T11:33:15.407Z,100361.23
2023-03-18T11:35:53.187Z,100357.54
2023-03-18T11:38:29.305Z,100357.29
2023-03-18T11:41:13.496Z,100360.16
2023-03-18T11:43:59.264Z,100362.65
2023-03-18T11:46:37.547Z,100366.17
2023-03-18T11:49:14.112Z,100362.22
2023-03-18T11:51:53.294Z,100368.81
2023-03-18T11:54:45.226Z,100364.95
2023-03-18T11:57:25.592Z,100370.40
2023-03-18T12:00:07.440Z,100370.05
2023-03-18T12:02:59.076Z,100364.35
2023-03-18T12:05:51.976Z,100360.58
2023-03-18T12:08:33.053Z,100365.94
2023-03-18T12:11:12.897Z,100369.15
2023-03-18T12:13:58.894Z,100368.42
2023-03-18T12:16:50.593Z,100364.77
2023-03-18T12:19:40.861Z,100361.33
2023-03-18T12:22:40.941Z,100367.05
2023-03-18T12:25:32.829Z,100369.38
2023-03-18T12:28:17.030Z,100367.04
2023-03-18T12:31:07.929Z,100367.48
2023-03-18T12:33:53.355Z,100370.33
2023-03-18T12:36:45.055Z,100369.73
2023-03-18T12:39:53.762Z,100366.05
2023-03-18T12:42:38.988Z,100359.23
2023-03-18T12:45:17.015Z,100360.42
2023-03-18T12:47:54.224Z,100362.61
2023-03-18T12:50:33.707Z,100367.95
2023-03-18T12:53:14.837Z,100366.73
2023-03-18T12:55:54.025Z,100358.98
2023-03-18T12:58:30.004Z,100363.56
2023-03-18T13:01:07.285Z,100365.56
2023-03-18T13:03:41.062Z,100364.05
2023-03-18T13:06:18.740Z,100363.45
2023-03-18T13:09:02.369Z,100362.16
2023-03-18T13:11:46.640Z,100362.45
2023-03-18T13:14:26.280Z,100362.80
2023-03-18T13:16:59.746Z,100363.23
2023-03-18T13:19:32.385Z,100362.02
2023-03-18T13:22:18.417Z,100360.94
2023-03-18T13:25:02.839Z,100357.77
2023-03-18T13:27:46.290Z,100358.92
2023-03-18T13:30:28.323Z,100359.31
2023-03-18T13:33:17.656Z,100368.44
2023-03-18T13:36:10.388Z,100364.69
2023-03-18T13:38:55.595Z,100361.82
2023-03-18T13:42:04.542Z,100361.94
2023-03-18T13:44:43.348Z,100367.64
2023-03-18T13:47:19.665Z,100363.94
2023-03-18T13:50:01.557Z,100363.58
2023-03-18T13:52:42.002Z,100362.88
2023-03-18T13:55:27.582Z,100369.92
2023-03-18T13:58:10.507Z,100369.95
2023-03-18T14:00:41.946Z,100368.96
2023-03-18T14:03:23.223Z,100370.85
2023-03-18T14:06:22.892Z,100370.98
2023-03-18T14:08:55.507Z,100369.40
2023-03-18T14:11:52.979Z,100363.32
2023-03-18T14:15:09.395Z,100363.80
2023-03-18T14:17:55.738Z,100362.85
2023-03-18T14:20:40.636Z,100361.33
2023-03-18T14:23:39.295Z,100363.00
2023-03-18T14:26:21.890Z,100359.24
2023-03-18T14:29:03.554Z,100357.39
2023-03-18T14:32:01.026Z,100354.90
2023-03-18T14:34:35.872Z,100345.95
2023-03-18T14:37:30.361Z,100345.77
2023-03-18T14:40:15.805Z,100340.95
2023-03-18T14:42:56.794Z,100338.65
2023-03-18T14:45:33.438Z,100342.78
2023-03-18T14:48:13.540Z,100343.58
2023-03-18T14:50:50.549Z,100338.21
2023-03-18T14:53:30.056Z,100339.08
2023-03-18T14:56:04.319Z,100340.36
2023-03-18T14:58:50.549Z,100337.73
2023-03-18T15:01:30.242Z,100335.94
2023-03-18T15:04:03.810Z,100336.98
2023-03-18T15:06:36.640Z,100332.58
2023-03-18T15:09:15.520Z,100331.28
2023-03-18T15:11:49.046Z,100322.58
2023-03-18T15:14:26.958Z,100320.67
2023-03-18T15:17:00.943Z,100322.09
2023-03-18T15:19:33.648Z,100319.95
2023-03-18T15:22:08.633Z,100312.34
2023-03-18T15:24:40.770Z,100317.10
2023-03-18T15:27:19.512Z,100321.79
2023-03-18T15:29:54.622Z,100333.01
2023-03-18T15:32:29.533Z,100335.73
2023-03-18T15:35:16.623Z,100336.14
2023-03-18T15:38:03.220Z,100335.78
2023-03-18T15:40:36.668Z,100331.77
2023-03-18T15:43:29.830Z,100331.63
2023-03-18T15:46:01.057Z,100330.73
2023-03-18T15:48:37.879Z,100330.49
2023-03-18T15:51:28.177Z,100328.05
2023-03-18T15:54:04.985Z,100328.74
2023-03-18T15:56:44.084Z,100332.43
2023-03-18T15:59:19.929Z,100331.86
2023-03-18T16:01:52.643Z,100334.27
2023-03-18T16:04:26.005Z,100339.55
2023-03-18T16:06:59.449Z,100339.81
2023-03-18T16:09:34.690Z,100340.85
2023-03-18T16:12:14.402Z,100341.26
2023-03-18T16:14:47.627Z,100345.83
2023-03-18T16:17:22.207Z,100346.48
2023-03-18T16:19:56.970Z,100342.36
2023-03-18T16:22:30.835Z,100344.26
2023-03-18T16:25:04.601Z,100341.48
2023-03-18T16:27:40.172Z,100333.08
2023-03-18T16:30:22.722Z,100340.86
2023-03-18T16:32:56.625Z,100347.82
2023-03-18T16:35:33.787Z,100352.80
2023-03-18T16:38:06.414Z,100356.39
2023-03-18T16:40:38.415Z,100359.46
2023-03-18T16:43:16.209Z,100358.41
2023-03-18T16:45:49.380Z,100359.58
2023-03-18T16:48:23.780Z,100360.36
2023-03-18T16:50:57.442Z,100359.52
2023-03-18T16:53:31.901Z,100364.70
2023-03-18T16:56:16.076Z,100364.67
2023-03-18T16:58:48.216Z,100366.59
2023-03-18T17:01:21.506Z,100368.41
2023-03-18T17:03:54.009Z,100371.27
2023-03-18T17:06:24.803Z,100366.31
2023-03-18T17:08:57.041Z,100373.38
2023-03-18T17:11:29.185Z,100372.48
2023-03-18T17:14:00.805Z,100371.99
2023-03-18T17:16:32.860Z,100368.94
2023-03-18T17:19:05.372Z,100370.74
2023-03-18T17:21:38.031Z,100364.38
2023-03-18T17:24:10.746Z,100372.07
2023-03-18T17:26:43.334Z,100371.09
2023-03-18T17:29:24.443Z,100369.52
2023-03-18T17:31:56.970Z,100368.30
2023-03-18T17:34:29.244Z,100374.80
2023-03-18T17:37:01.083Z,100383.21
2023-03-18T17:39:32.951Z,100383.63
2023-03-18T17:42:05.992Z,100378.60
2023-03-18T17:44:38.462Z,100378.73
2023-03-18T17:47:11.395Z,100382.61
2023-03-18T17:49:43.672Z,100380.30
2023-03-18T17:52:20.786Z,100383.79
2023-03-18T17:54:52.607Z,100381.27
2023-03-18T17:57:24.386Z,100381.77
2023-03-18T17:59:57.722Z,100388.16
2023-03-18T18:02:29.907Z,100389.08
2023-03-18T18:05:01.768Z,100389.63
2023-03-18T18:07:33.915Z,100388.32
2023-03-18T18:10:06.915Z,100390.39
2023-03-18T18:12:47.226Z,100390.66
2023-03-18T18:15:27.796Z,100389.05
2023-03-18T18:18:01.300Z,100391.61
2023-03-18T18:20:34.156Z,100389.82
2023-03-18T18:23:07.382Z,100393.83
2023-03-18T18:25:39.389Z,100393.35
2023-03-18T18:28:21.132Z,100393.11
2023-03-18T18:30:52.990Z,100390.83
2023-03-18T18:33:25.193Z,100387.42
2023-03-18T18:35:57.749Z,100388.91
2023-03-18T18:38:30.785Z,100387.63
2023-03-18T18:41:03.511Z,100394.04
2023-03-18T18:43:36.484Z,100392.33
2023-03-18T18:46:14.665Z,100393.52
2023-03-18T18:48:50.488Z,100393.71
2023-03-18T18:51:25.316Z,100397.01
2023-03-18T18:53:57.426Z,100393.35
2023-03-18T18:56:34.083Z,100397.95
2023-03-18T18:59:18.628Z,100400.00
2023-03-18T19:01:50.649Z,100403.87
2023-03-18T19:04:23.602Z,100403.11
2023-03-18T19:06:56.176Z,100404.13
2023-03-18T19:09:28.733Z,100400.02
2023-03-18T19:12:00.553Z,100399.55
2023-03-18T19:14:32.811Z,100400.27
2023-03-18T19:17:05.328Z,100398.89
2023-03-18T19:19:35.828Z,100398.73
2023-03-18T19:22:07.963Z,100398.33
2023-03-18T19:24:40.934Z,100396.89
2023-03-18T19:27:21.768Z,100402.85
2023-03-18T19:29:55.602Z,100403.27
2023-03-18T19:32:28.512Z,100405.23
2023-03-18T19:35:00.562Z,100405.08
2023-03-18T19:37:33.420Z,100401.41
2023-03-18T19:40:24.296Z,100405.81
2023-03-18T19:42:56.451Z,100398.95
2023-03-18T19:45:28.595Z,100397.77
2023-03-18T19:48:01.118Z,100403.73
2023-03-18T19:50:33.112Z,100400.49
2023-03-18T19:53:13.052Z,100400.89
2023-03-18T19:55:46.087Z,100402.44
2023-03-18T19:58:24.488Z,100406.33
2023-03-18T20:00:56.465Z,100406.23
2023-03-18T20:03:28.834Z,100408.44
2023-03-18T20:06:01.665Z,100409.26
2023-03-18T20:08:31.996Z,100409.77
2023-03-18T20:11:04.121Z,100410.88
2023-03-18T20:13:35.962Z,100407.35
2023-03-18T20:16:12.234Z,100408.23
2023-03-18T20:18:44.865Z,100413.46
2023-03-18T20:21:20.378Z,100414.02
2023-03-18T20:23:53.972Z,100418.54
2023-03-18T20:26:25.858Z,100416.86
2023-03-18T20:28:58.649Z,100416.55
2023-03-18T20:31:30.829Z,100415.07
2023-03-18T20:34:02.849Z,100417.48
2023-03-18T20:36:35.152Z,100412.60
2023-03-18T20:39:07.288Z,100409.85
2023-03-18T20:41:39.815Z,100404.80
2023-03-18T20:44:14.791Z,100404.78
2023-03-18T20:46:46.698Z,100402.39
2023-03-18T20:49:19.700Z,100400.06
2023-03-18T20:51:51.638Z,100401.31
2023-03-18T20:54:28.951Z,100405.70
2023-03-18T20:57:01.027Z,100404.48
2023-03-18T20:59:32.891Z,100403.90
2023-03-18T21:02:04.752Z,100402.21
2023-03-18T21:04:37.162Z,100407.00
2023-03-18T21:07:14.150Z,100405.52
2023-03-18T21:09:46.405Z,100402.02
2023-03-18T21:12:20.970Z,100403.70
2023-03-18T21:14:52.974Z,100404.58
2023-03-18T21:17:27.345Z,100401.41
2023-03-18T21:20:15.340Z,100412.00
2023-03-18T21:22:52.735Z,100409.23
2023-03-18T21:25:26.890Z,100415.08
2023-03-18T21:27:58.916Z,100412.75
2023-03-18T21:30:31.474Z,100413.44
2023-03-18T21:33:04.159Z,100405.98
2023-03-18T21:35:35.181Z,100402.63
2023-03-18T21:38:08.495Z,100402.21
2023-03-18T21:40:40.814Z,100399.67
2023-03-18T21:43:30.232Z,100393.86
2023-03-18T21:46:03.441Z,100393.88
2023-03-18T21:48:35.361Z,100395.48
2023-03-18T21:51:08.630Z,100395.59
2023-03-18T21:53:40.746Z,100397.87
2023-03-18T21:56:13.413Z,100393.74
2023-03-18T21:58:45.277Z,100394.28
2023-03-18T22:01:20.906Z,100396.89
2023-03-18T22:03:53.921Z,100399.27
2023-03-18T22:06:25.841Z,100401.21
2023-03-18T22:08:57.921Z,100405.01
2023-03-18T22:11:30.036Z,100402.86
2023-03-18T22:14:01.911Z,100406.92
2023-03-18T22:16:33.855Z,100407.49
2023-03-18T22:19:05.691Z,100408.20
2023-03-18T22:21:37.722Z,100407.88
2023-03-18T22:24:14.725Z,100409.71
2023-03-18T22:26:46.586Z,100412.77
2023-03-18T22:29:18.853Z,100405.87
2023-03-18T22:31:50.702Z,100407.29
2023-03-18T22:34:25.479Z,100410.75
2023-03-18T22:36:57.355Z,100411.83
2023-03-18T22:39:29.241Z,100408.27
2023-03-18T22:42:01.142Z,100409.22
2023-03-18T22:44:33.016Z,100410.90
2023-03-18T22:47:05.626Z,100412.77
2023-03-18T22:49:37.415Z,100414.04
2023-03-18T22:52:14.642Z,100411.99
2023-03-18T22:54:47.023Z,100413.86
2023-03-18T22:57:22.197Z,100416.21
2023-03-18T22:59:54.606Z,100412.27
2023-03-18T23:02:28.545Z,100414.02
2023-03-18T23:05:00.502Z,100416.67
2023-03-18T23:07:34.374Z,100416.88
2023-03-18T23:10:07.330Z,100420.84
2023-03-18T23:12:37.720Z,100423.16
2023-03-18T23:15:14.624Z,100420.52
2023-03-18T23:17:47.575Z,100423.05
2023-03-18T23:20:20.587Z,100424.63
2023-03-18T23:22:52.358Z,100423.87
2023-03-18T23:25:24.603Z,100424.41
2023-03-18T23:27:56.572Z,100424.65
2023-03-18T23:30:28.659Z,100428.03
2023-03-18T23:33:00.871Z,100427.13
2023-03-18T23:35:33.304Z,100423.48
2023-03-18T23:38:05.812Z,100418.79
2023-03-18T23:40:38.025Z,100425.33
2023-03-18T23:43:09.913Z,100426.02
2023-03-18T23:45:42.010Z,100422.80
2023-03-18T23:48:14.150Z,100425.70
2023-03-18T23:50:46.543Z,100423.63
2023-03-18T23:53:18.374Z,100418.92
2023-03-18T23:55:52.283Z,100420.70
2023-03-18T23:58:24.173Z,100422.44
